createdAt,value
2019-05-17T00:01:27.050Z,59.79
2019-05-17T00:03:59.572Z,61.52
2019-05-17T00:06:32.554Z,63.05
2019-05-17T00:09:07.097Z,63.22
2019-05-17T00:11:40.078Z,54.58
2019-05-17T00:14:12.752Z,52.74
2019-05-17T00:16:46.955Z,55.37
2019-05-17T00:19:21.998Z,57.80
2019-05-17T00:21:56.676Z,60.04
2019-05-17T00:24:29.193Z,61.43
2019-05-17T00:27:01.795Z,62.26
2019-05-17T00:29:37.011Z,63.68
2019-05-17T00:32:09.073Z,55.20
2019-05-17T00:34:42.270Z,53.02
2019-05-17T00:37:17.183Z,55.39
2019-05-17T00:39:49.372Z,57.72
2019-05-17T00:42:22.048Z,59.94
2019-05-17T00:44:56.528Z,61.42
2019-05-17T00:47:29.253Z,62.62
2019-05-17T00:50:03.262Z,63.54
2019-05-17T00:52:36.910Z,55.26
2019-05-17T00:55:10.977Z,52.74
2019-05-17T00:57:43.767Z,55.47
2019-05-17T01:00:17.563Z,57.79
2019-05-17T01:02:50.256Z,59.11
2019-05-17T01:05:22.917Z,60.74
2019-05-17T01:07:57.252Z,61.89
2019-05-17T01:10:29.404Z,63.39
2019-05-17T01:13:02.079Z,54.89
2019-05-17T01:15:36.839Z,52.36
2019-05-17T01:18:10.824Z,55.06
2019-05-17T01:20:44.124Z,57.59
2019-05-17T01:23:16.803Z,59.78
2019-05-17T01:25:49.541Z,61.22
2019-05-17T01:28:21.771Z,62.45
2019-05-17T01:30:56.833Z,63.52
2019-05-17T01:33:29.262Z,55.12
2019-05-17T01:36:03.568Z,52.80
2019-05-17T01:38:37.779Z,55.47
2019-05-17T01:41:10.460Z,57.41
2019-05-17T01:43:43.198Z,59.79
2019-05-17T01:46:17.174Z,61.42
2019-05-17T01:48:50.144Z,62.72
2019-05-17T01:51:22.433Z,63.84
2019-05-17T01:53:57.213Z,55.33
2019-05-17T01:56:29.408Z,53.00
2019-05-17T01:59:02.403Z,55.74
2019-05-17T02:01:37.126Z,58.33
2019-05-17T02:04:09.301Z,60.09
2019-05-17T02:06:41.977Z,61.65
2019-05-17T02:09:24.975Z,62.96
2019-05-17T02:11:48.672Z,63.90
2019-05-17T02:14:21.447Z,55.53
2019-05-17T02:16:54.529Z,53.14
2019-05-17T02:19:27.427Z,55.86
2019-05-17T02:22:00.200Z,58.42
2019-05-17T02:24:32.887Z,60.58
2019-05-17T02:27:05.756Z,61.95
2019-05-17T02:29:38.853Z,63.21
2019-05-17T02:32:12.964Z,55.02
2019-05-17T02:34:47.083Z,52.89
2019-05-17T02:37:22.904Z,55.52
2019-05-17T02:40:03.212Z,57.84
2019-05-17T02:42:28.701Z,59.87
2019-05-17T02:45:03.141Z,61.45
2019-05-17T02:47:35.284Z,62.88
2019-05-17T02:50:08.611Z,63.66
2019-05-17T02:52:43.797Z,55.30
2019-05-17T02:55:16.955Z,53.00
2019-05-17T02:57:52.688Z,55.60
2019-05-17T03:00:24.373Z,58.28
2019-05-17T03:02:57.754Z,60.50
2019-05-17T03:05:33.443Z,62.19
2019-05-17T03:08:04.843Z,63.20
2019-05-17T03:10:37.384Z,54.71
2019-05-17T03:13:12.803Z,53.39
2019-05-17T03:15:44.902Z,56.21
2019-05-17T03:18:17.989Z,58.81
2019-05-17T03:20:52.563Z,60.58
2019-05-17T03:23:25.288Z,63.01
2019-05-17T03:25:57.972Z,62.88
2019-05-17T03:28:33.544Z,54.48
2019-05-17T03:31:08.483Z,53.64
2019-05-17T03:33:45.324Z,56.53
2019-05-17T03:36:16.906Z,59.05
2019-05-17T03:38:48.903Z,60.93
2019-05-17T03:41:28.489Z,62.77
2019-05-17T03:43:55.837Z,63.21
2019-05-17T03:46:28.516Z,55.14
2019-05-17T03:49:03.888Z,53.08
2019-05-17T03:51:35.410Z,55.68
2019-05-17T03:54:08.090Z,58.33
2019-05-17T03:56:42.825Z,60.24
2019-05-17T03:59:15.084Z,61.23
2019-05-17T04:01:47.868Z,62.17
2019-05-17T04:04:22.869Z,63.73
2019-05-17T04:06:54.451Z,55.45
2019-05-17T04:09:28.155Z,53.33
2019-05-17T04:12:02.797Z,56.01
2019-05-17T04:14:35.161Z,58.60
2019-05-17T04:17:07.778Z,60.33
2019-05-17T04:19:42.610Z,61.69
2019-05-17T04:22:14.616Z,63.26
2019-05-17T04:24:46.910Z,55.67
2019-05-17T04:27:22.785Z,53.23
2019-05-17T04:29:53.792Z,55.87
2019-05-17T04:32:26.034Z,58.29
2019-05-17T04:34:58.752Z,60.30
2019-05-17T04:37:33.591Z,61.66
2019-05-17T04:40:07.679Z,62.83
2019-05-17T04:42:43.519Z,63.77
2019-05-17T04:45:15.601Z,55.38
2019-05-17T04:47:49.402Z,53.63
2019-05-17T04:50:23.148Z,56.15
2019-05-17T04:52:56.117Z,58.61
2019-05-17T04:55:28.781Z,60.28
2019-05-17T04:58:03.897Z,62.06
2019-05-17T05:00:38.163Z,62.46
2019-05-17T05:06:19.482Z,53.43
2019-05-17T05:08:56.610Z,55.95
2019-05-17T05:11:51.576Z,57.86
2019-05-17T05:14:12.820Z,59.53
2019-05-17T05:16:44.996Z,60.69
2019-05-17T05:19:18.735Z,61.91
2019-05-17T05:21:57.728Z,63.93
2019-05-17T05:24:33.222Z,61.60
2019-05-17T05:27:18.582Z,54.21
2019-05-17T05:29:59.222Z,54.80
2019-05-17T05:32:39.051Z,57.12
2019-05-17T05:35:24.758Z,58.97
2019-05-17T05:38:07.708Z,60.92
2019-05-17T05:40:47.188Z,62.24
2019-05-17T05:43:34.441Z,61.23
2019-05-17T05:46:23.610Z,52.42
2019-05-17T05:49:01.870Z,53.88
2019-05-17T05:51:52.227Z,56.22
2019-05-17T05:54:41.758Z,57.68
2019-05-17T05:57:42.101Z,59.36
2019-05-17T06:07:03.895Z,62.04
2019-05-17T06:38:56.795Z,61.16
2019-05-17T08:49:35.804Z,61.44
2019-05-17T09:59:09.865Z,61.85
2019-05-17T10:01:33.744Z,60.00
2019-05-17T10:04:06.970Z,59.84
2019-05-17T10:06:40.158Z,59.78
2019-05-17T10:09:12.890Z,59.12
2019-05-17T10:11:45.554Z,58.25
2019-05-17T10:14:25.775Z,57.47
2019-05-17T10:17:00.299Z,58.59
2019-05-17T10:19:32.659Z,58.12
2019-05-17T10:22:05.379Z,58.71
2019-05-17T10:24:42.028Z,57.71
2019-05-17T10:27:14.574Z,56.26
2019-05-17T10:29:46.496Z,56.60
2019-05-17T10:32:20.480Z,56.61
2019-05-17T10:34:53.596Z,56.34
2019-05-17T10:37:26.265Z,55.79
2019-05-17T10:39:58.954Z,57.08
2019-05-17T10:42:31.635Z,57.62
2019-05-17T10:45:05.748Z,57.94
2019-05-17T10:47:39.695Z,57.95
2019-05-17T10:50:17.556Z,58.15
2019-05-17T10:52:50.560Z,58.32
2019-05-17T10:55:23.239Z,57.82
2019-05-17T10:57:56.002Z,57.87
2019-05-17T11:00:30.321Z,56.93
2019-05-17T11:03:03.620Z,58.02
2019-05-17T11:05:36.283Z,57.15
2019-05-17T11:08:10.640Z,57.49
2019-05-17T11:10:44.409Z,57.11
2019-05-17T11:13:17.205Z,56.99
2019-05-17T11:15:49.869Z,57.20
2019-05-17T11:18:22.547Z,56.86
2019-05-17T11:20:55.238Z,56.72
2019-05-17T11:23:27.535Z,55.89
2019-05-17T11:26:00.191Z,56.74
2019-05-17T11:28:32.522Z,56.21
2019-05-17T11:31:07.599Z,56.94
2019-05-17T11:33:40.801Z,57.28
2019-05-17T11:36:13.457Z,56.96
2019-05-17T11:38:46.237Z,57.23
2019-05-17T11:41:21.531Z,57.49
2019-05-17T11:43:57.027Z,57.67
2019-05-17T11:46:36.108Z,57.58
2019-05-17T11:49:08.346Z,57.41
2019-05-17T11:51:41.023Z,58.74
2019-05-17T11:54:13.359Z,59.46
2019-05-17T11:56:46.047Z,58.61
2019-05-17T11:59:18.734Z,57.31
2019-05-17T12:01:51.409Z,57.47
2019-05-17T12:04:24.059Z,56.74
2019-05-17T12:06:56.667Z,57.21
2019-05-17T12:09:37.239Z,57.37
2019-05-17T12:12:06.527Z,57.66
2019-05-17T12:14:39.211Z,57.07
2019-05-17T12:17:11.843Z,57.94
2019-05-17T12:19:44.560Z,57.34
2019-05-17T12:22:17.341Z,57.39
2019-05-17T12:24:56.483Z,57.63
2019-05-17T12:27:29.269Z,57.16
2019-05-17T12:30:02.427Z,57.95
2019-05-17T12:32:38.454Z,58.33
2019-05-17T12:35:11.252Z,58.50
2019-05-17T12:37:44.125Z,59.01
2019-05-17T12:47:08.697Z,60.53
2019-05-17T12:52:15.180Z,61.76
2019-05-17T12:54:49.505Z,61.92
2019-05-17T12:57:22.801Z,63.45
2019-05-17T12:59:55.486Z,61.49
2019-05-17T13:02:28.259Z,54.08
2019-05-17T13:05:00.934Z,51.80
2019-05-17T13:07:33.624Z,55.19
2019-05-17T13:10:07.824Z,55.86
2019-05-17T13:12:40.512Z,57.47
2019-05-17T13:15:13.591Z,59.62
2019-05-17T13:17:46.270Z,61.69
2019-05-17T13:20:19.675Z,63.18
2019-05-17T13:22:52.352Z,61.33
2019-05-17T13:25:25.338Z,53.19
2019-05-17T13:27:58.020Z,51.14
2019-05-17T13:30:32.438Z,52.70
2019-05-17T13:33:05.325Z,55.69
2019-05-17T13:35:38.009Z,57.78
2019-05-17T13:38:10.690Z,57.37
2019-05-17T13:40:43.365Z,59.57
2019-05-17T13:43:16.045Z,60.25
2019-05-17T13:45:48.277Z,60.19
2019-05-17T13:48:22.219Z,59.50
2019-05-17T13:50:55.095Z,59.49
2019-05-17T13:53:27.695Z,58.85
2019-05-17T13:56:00.359Z,59.68
2019-05-17T13:58:33.132Z,63.19
2019-05-17T14:01:05.915Z,52.95
2019-05-17T14:03:38.622Z,52.60
2019-05-17T14:06:12.306Z,53.06
2019-05-17T14:08:44.603Z,52.21
2019-05-17T14:11:17.245Z,50.38
2019-05-17T14:13:49.923Z,48.59
2019-05-17T14:16:22.615Z,48.06
2019-05-17T14:18:55.286Z,47.38
2019-05-17T14:21:27.959Z,47.48
2019-05-17T14:24:00.643Z,47.41
2019-05-17T14:26:33.677Z,45.91
2019-05-17T14:29:06.407Z,45.85
2019-05-17T14:31:39.104Z,44.30
2019-05-17T14:34:11.869Z,44.05
2019-05-17T14:36:44.469Z,41.67
2019-05-17T14:39:18.157Z,42.31
2019-05-17T14:41:50.830Z,41.45
2019-05-17T14:44:23.510Z,37.56
2019-05-17T14:46:56.197Z,37.26
2019-05-17T14:49:28.881Z,36.61
2019-05-17T14:52:01.548Z,34.50
2019-05-17T14:54:34.225Z,35.51
2019-05-17T14:57:06.929Z,35.21
2019-05-17T14:59:39.595Z,33.73
2019-05-17T15:02:12.251Z,32.33
2019-05-17T15:04:44.948Z,33.81
2019-05-17T15:07:17.219Z,32.90
2019-05-17T15:09:51.741Z,32.95
2019-05-17T15:12:28.471Z,32.51
2019-05-17T15:15:03.794Z,31.62
2019-05-17T15:17:41.380Z,31.86
2019-05-17T15:20:16.525Z,29.95
2019-05-17T15:22:50.523Z,30.73
2019-05-17T15:25:23.986Z,30.94
2019-05-17T15:27:57.927Z,30.63
2019-05-17T15:30:34.834Z,29.16
2019-05-17T15:33:10.207Z,29.88
2019-05-17T15:35:46.473Z,29.96
2019-05-17T15:38:19.866Z,28.86
2019-05-17T15:40:52.967Z,29.02
2019-05-17T15:43:25.955Z,28.62
2019-05-17T15:45:58.640Z,27.23
2019-05-17T15:48:31.320Z,27.02
2019-05-17T15:51:04.039Z,27.87
2019-05-17T15:53:36.670Z,27.32
2019-05-17T15:56:08.961Z,27.24
2019-05-17T15:58:41.204Z,27.33
2019-05-17T16:01:13.894Z,27.32
2019-05-17T16:03:46.572Z,27.58
2019-05-17T16:06:19.260Z,27.38
2019-05-17T16:08:51.940Z,26.77
2019-05-17T16:11:24.617Z,26.96
2019-05-17T16:13:57.293Z,27.19
2019-05-17T16:16:29.970Z,26.79
2019-05-17T16:19:02.223Z,26.45
2019-05-17T16:21:34.534Z,27.28
2019-05-17T16:24:07.284Z,27.34
2019-05-17T16:26:40.483Z,27.55
2019-05-17T16:29:13.162Z,27.51
2019-05-17T16:31:45.893Z,27.69
2019-05-17T16:34:18.557Z,27.33
2019-05-17T16:36:51.199Z,27.66
2019-05-17T16:39:23.891Z,28.69
2019-05-17T16:41:56.561Z,28.25
2019-05-17T16:44:29.243Z,28.56
2019-05-17T16:47:01.927Z,28.72
2019-05-17T16:49:34.599Z,29.11
2019-05-17T16:52:07.285Z,28.90
2019-05-17T16:54:39.959Z,29.34
2019-05-17T16:57:12.897Z,29.27
2019-05-17T16:59:45.516Z,29.58
2019-05-17T17:02:18.200Z,30.24
2019-05-17T17:04:51.290Z,29.84
2019-05-17T17:07:23.966Z,30.35
2019-05-17T17:09:56.645Z,30.60
2019-05-17T17:12:29.427Z,30.86
2019-05-17T17:15:02.036Z,30.85
2019-05-17T17:17:34.785Z,31.33
2019-05-17T17:20:08.562Z,31.98
2019-05-17T17:22:41.267Z,32.36
2019-05-17T17:25:14.162Z,32.99
2019-05-17T17:27:47.245Z,33.80
2019-05-17T17:30:20.073Z,35.25
2019-05-17T17:32:52.385Z,36.16
2019-05-17T17:35:25.092Z,37.44
2019-05-17T17:37:59.304Z,38.90
2019-05-17T17:40:31.988Z,40.56
2019-05-17T17:43:04.649Z,41.73
2019-05-17T17:45:37.416Z,43.20
2019-05-17T17:48:10.210Z,44.19
2019-05-17T17:50:44.871Z,45.71
2019-05-17T17:53:17.137Z,46.40
2019-05-17T17:55:49.797Z,47.73
2019-05-17T17:58:22.529Z,48.09
2019-05-17T18:00:55.143Z,49.73
2019-05-17T18:03:27.838Z,50.47
2019-05-17T18:06:00.505Z,51.36
2019-05-17T18:08:34.722Z,52.96
2019-05-17T18:11:07.611Z,53.78
2019-05-17T18:13:40.395Z,55.07
2019-05-17T18:16:13.077Z,57.10
2019-05-17T18:18:45.856Z,57.71
2019-05-17T18:21:18.669Z,59.66
2019-05-17T18:23:51.539Z,59.85
2019-05-17T21:07:07.476Z,55.58
2019-05-17T21:09:40.370Z,58.12
2019-05-17T21:12:13.039Z,60.37
2019-05-17T21:14:45.830Z,61.90
2019-05-17T21:17:18.504Z,64.04
2019-05-17T21:19:51.193Z,63.13
2019-05-17T21:22:23.867Z,54.45
2019-05-17T21:24:56.789Z,52.67
2019-05-17T21:27:29.430Z,55.09
2019-05-17T21:30:02.113Z,57.53
2019-05-17T21:32:35.527Z,59.99
2019-05-17T21:35:09.311Z,61.54
2019-05-17T21:37:41.984Z,62.54
2019-05-17T21:40:15.283Z,63.19
2019-05-17T21:42:47.963Z,55.27
2019-05-17T21:45:21.876Z,52.69
2019-05-17T21:47:54.549Z,54.97
2019-05-17T21:50:27.222Z,57.85
2019-05-17T21:52:59.789Z,60.16
2019-05-17T21:55:32.477Z,61.78
2019-05-17T21:58:05.052Z,62.99
2019-05-17T22:00:52.891Z,64.26
2019-05-17T22:03:25.568Z,55.25
2019-05-17T22:05:58.654Z,53.24
2019-05-17T22:08:31.237Z,56.11
2019-05-17T22:11:04.628Z,58.69
2019-05-17T22:13:37.311Z,60.40
2019-05-17T22:16:19.013Z,61.52
2019-05-17T22:18:44.199Z,62.35
2019-05-17T22:21:16.880Z,63.33
2019-05-17T22:23:49.569Z,54.68
2019-05-17T22:26:22.243Z,52.35
2019-05-17T22:28:54.922Z,54.69
2019-05-17T22:31:28.828Z,57.17
2019-05-17T22:34:01.415Z,59.02
2019-05-17T22:36:34.079Z,60.73
2019-05-17T22:39:08.504Z,62.08
2019-05-17T22:41:41.180Z,63.56
2019-05-17T22:44:14.074Z,56.00
2019-05-17T22:46:47.059Z,53.21
2019-05-17T22:49:19.936Z,55.55
2019-05-17T22:51:52.204Z,58.42
2019-05-17T22:54:24.887Z,60.53
2019-05-17T22:56:57.767Z,62.32
2019-05-17T22:59:30.455Z,63.76
2019-05-17T23:02:03.146Z,55.58
2019-05-17T23:04:35.358Z,53.74
2019-05-17T23:07:08.186Z,56.85
2019-05-17T23:09:41.167Z,60.00
2019-05-17T23:12:15.625Z,62.51
2019-05-17T23:14:48.365Z,63.03
2019-05-17T23:17:21.354Z,55.06
2019-05-17T23:19:54.242Z,53.38
2019-05-17T23:22:26.922Z,56.34
2019-05-17T23:24:59.708Z,58.70
2019-05-17T23:27:32.689Z,60.78
2019-05-17T23:30:07.726Z,65.11
2019-05-17T23:32:40.508Z,59.64
2019-05-17T23:35:13.284Z,55.54
2019-05-17T23:37:46.173Z,57.79
2019-05-17T23:40:19.505Z,60.02
2019-05-17T23:42:52.150Z,62.03
2019-05-17T23:45:25.125Z,62.88
2019-05-17T23:47:57.799Z,54.43
2019-05-17T23:50:31.616Z,55.72
2019-05-17T23:53:04.290Z,58.63
2019-05-17T23:55:36.976Z,60.96
2019-05-17T23:58:09.648Z,63.14
